sensor_id;sensor_type;location;lat;lon;timestamp;P1;durP1;ratioP1;P2;durP2;ratioP2
56161;SDS011;42045;52.986;6.014;2023-08-24T00:01:06;7.43;;;6.78;;
56161;SDS011;42045;52.986;6.014;2023-08-24T00:03:34;8.45;;;7.72;;
56161;SDS011;42045;52.986;6.014;2023-08-24T00:05:59;9.57;;;6.72;;
56161;SDS011;42045;52.986;6.014;2023-08-24T00:08:25;7.57;;;6.80;;
56161;SDS011;42045;52.986;6.014;2023-08-24T00:10:51;6.80;;;6.20;;
56161;SDS011;42045;52.986;6.014;2023-08-24T00:13:17;9.15;;;6.32;;
56161;SDS011;42045;52.986;6.014;2023-08-24T00:15:44;7.18;;;6.40;;
56161;SDS011;42045;52.986;6.014;2023-08-24T00:18:10;6.30;;;5.80;;
56161;SDS011;42045;52.986;6.014;2023-08-24T00:20:36;6.13;;;5.53;;
56161;SDS011;42045;52.986;6.014;2023-08-24T00:23:02;6.80;;;6.20;;
56161;SDS011;42045;52.986;6.014;2023-08-24T00:25:28;6.60;;;4.95;;
56161;SDS011;42045;52.986;6.014;2023-08-24T00:27:54;4.38;;;3.97;;
56161;SDS011;42045;52.986;6.014;2023-08-24T00:30:20;4.68;;;3.75;;
56161;SDS011;42045;52.986;6.014;2023-08-24T00:32:46;4.75;;;3.90;;
56161;SDS011;42045;52.986;6.014;2023-08-24T00:35:12;4.40;;;4.00;;
56161;SDS011;42045;52.986;6.014;2023-08-24T00:37:38;4.22;;;3.72;;
56161;SDS011;42045;52.986;6.014;2023-08-24T00:40:04;4.60;;;4.20;;
56161;SDS011;42045;52.986;6.014;2023-08-24T00:42:38;7.30;;;5.43;;
56161;SDS011;42045;52.986;6.014;2023-08-24T00:45:05;7.57;;;5.75;;
56161;SDS011;42045;52.986;6.014;2023-08-24T00:47:31;7.28;;;5.68;;
56161;SDS011;42045;52.986;6.014;2023-08-24T00:49:57;7.47;;;6.57;;
56161;SDS011;42045;52.986;6.014;2023-08-24T00:52:25;7.25;;;6.57;;
56161;SDS011;42045;52.986;6.014;2023-08-24T00:54:54;9.68;;;7.40;;
56161;SDS011;42045;52.986;6.014;2023-08-24T00:57:19;8.35;;;7.53;;
56161;SDS011;42045;52.986;6.014;2023-08-24T00:59:46;10.43;;;9.30;;
56161;SDS011;42045;52.986;6.014;2023-08-24T01:02:12;12.65;;;8.45;;
56161;SDS011;42045;52.986;6.014;2023-08-24T01:04:40;8.82;;;7.97;;
56161;SDS011;42045;52.986;6.014;2023-08-24T01:07:07;8.10;;;7.30;;
56161;SDS011;42045;52.986;6.014;2023-08-24T01:09:34;9.20;;;8.00;;
56161;SDS011;42045;52.986;6.014;2023-08-24T01:12:02;7.05;;;5.82;;
56161;SDS011;42045;52.986;6.014;2023-08-24T01:14:57;8.02;;;7.25;;
56161;SDS011;42045;52.986;6.014;2023-08-24T01:17:31;16.30;;;9.68;;
56161;SDS011;42045;52.986;6.014;2023-08-24T01:19:58;13.57;;;10.45;;
56161;SDS011;42045;52.986;6.014;2023-08-24T01:25:51;15.68;;;9.88;;
56161;SDS011;42045;52.986;6.014;2023-08-24T01:28:18;9.15;;;8.25;;
56161;SDS011;42045;52.986;6.014;2023-08-24T01:30:46;10.60;;;9.45;;
56161;SDS011;42045;52.986;6.014;2023-08-24T01:33:12;12.52;;;9.10;;
56161;SDS011;42045;52.986;6.014;2023-08-24T01:35:39;12.95;;;10.38;;
56161;SDS011;42045;52.986;6.014;2023-08-24T01:38:06;10.80;;;9.70;;
56161;SDS011;42045;52.986;6.014;2023-08-24T01:43:09;11.88;;;10.68;;
56161;SDS011;42045;52.986;6.014;2023-08-24T01:45:37;12.88;;;11.02;;
56161;SDS011;42045;52.986;6.014;2023-08-24T01:48:06;17.27;;;11.85;;
56161;SDS011;42045;52.986;6.014;2023-08-24T01:50:34;17.65;;;12.07;;
56161;SDS011;42045;52.986;6.014;2023-08-24T01:53:01;12.90;;;10.77;;
56161;SDS011;42045;52.986;6.014;2023-08-24T01:55:28;11.73;;;10.60;;
56161;SDS011;42045;52.986;6.014;2023-08-24T01:57:54;12.65;;;10.20;;
56161;SDS011;42045;52.986;6.014;2023-08-24T02:00:21;14.85;;;11.07;;
56161;SDS011;42045;52.986;6.014;2023-08-24T02:02:47;13.10;;;11.43;;
56161;SDS011;42045;52.986;6.014;2023-08-24T02:05:13;11.38;;;10.00;;
56161;SDS011;42045;52.986;6.014;2023-08-24T02:07:39;17.88;;;11.18;;
56161;SDS011;42045;52.986;6.014;2023-08-24T02:10:06;13.05;;;11.40;;
56161;SDS011;42045;52.986;6.014;2023-08-24T02:12:32;13.65;;;11.60;;
56161;SDS011;42045;52.986;6.014;2023-08-24T02:14:57;14.40;;;12.35;;
56161;SDS011;42045;52.986;6.014;2023-08-24T02:17:23;17.50;;;11.90;;
56161;SDS011;42045;52.986;6.014;2023-08-24T02:19:49;15.77;;;11.93;;
56161;SDS011;42045;52.986;6.014;2023-08-24T02:22:15;17.92;;;10.90;;
56161;SDS011;42045;52.986;6.014;2023-08-24T02:24:41;12.52;;;11.20;;
56161;SDS011;42045;52.986;6.014;2023-08-24T02:27:06;14.82;;;11.35;;
56161;SDS011;42045;52.986;6.014;2023-08-24T02:29:32;14.57;;;12.07;;
56161;SDS011;42045;52.986;6.014;2023-08-24T02:31:58;14.57;;;11.52;;
56161;SDS011;42045;52.986;6.014;2023-08-24T02:34:23;17.52;;;11.60;;
56161;SDS011;42045;52.986;6.014;2023-08-24T02:36:49;14.55;;;9.95;;
56161;SDS011;42045;52.986;6.014;2023-08-24T02:39:15;12.45;;;10.40;;
56161;SDS011;42045;52.986;6.014;2023-08-24T02:41:41;13.10;;;10.25;;
56161;SDS011;42045;52.986;6.014;2023-08-24T02:44:06;13.23;;;11.20;;
56161;SDS011;42045;52.986;6.014;2023-08-24T02:46:32;17.73;;;12.18;;
56161;SDS011;42045;52.986;6.014;2023-08-24T02:48:58;16.92;;;11.32;;
56161;SDS011;42045;52.986;6.014;2023-08-24T02:51:23;14.02;;;12.40;;
56161;SDS011;42045;52.986;6.014;2023-08-24T02:53:49;15.48;;;10.98;;
56161;SDS011;42045;52.986;6.014;2023-08-24T02:56:15;12.98;;;9.85;;
56161;SDS011;42045;52.986;6.014;2023-08-24T02:58:41;14.93;;;10.23;;
56161;SDS011;42045;52.986;6.014;2023-08-24T03:01:07;17.02;;;11.18;;
56161;SDS011;42045;52.986;6.014;2023-08-24T03:03:33;14.05;;;10.77;;
56161;SDS011;42045;52.986;6.014;2023-08-24T03:06:02;13.73;;;11.00;;
56161;SDS011;42045;52.986;6.014;2023-08-24T03:08:30;15.10;;;9.70;;
56161;SDS011;42045;52.986;6.014;2023-08-24T03:10:57;14.88;;;10.02;;
56161;SDS011;42045;52.986;6.014;2023-08-24T03:13:26;13.23;;;10.32;;
56161;SDS011;42045;52.986;6.014;2023-08-24T03:15:53;12.55;;;9.65;;
56161;SDS011;42045;52.986;6.014;2023-08-24T03:18:19;12.48;;;11.18;;
56161;SDS011;42045;52.986;6.014;2023-08-24T03:20:45;14.43;;;10.25;;
56161;SDS011;42045;52.986;6.014;2023-08-24T03:23:11;14.27;;;10.70;;
56161;SDS011;42045;52.986;6.014;2023-08-24T03:25:38;13.65;;;10.25;;
56161;SDS011;42045;52.986;6.014;2023-08-24T03:28:05;16.60;;;11.18;;
56161;SDS011;42045;52.986;6.014;2023-08-24T03:30:32;14.30;;;10.68;;
56161;SDS011;42045;52.986;6.014;2023-08-24T03:32:59;13.43;;;10.50;;
56161;SDS011;42045;52.986;6.014;2023-08-24T03:35:24;18.77;;;11.75;;
56161;SDS011;42045;52.986;6.014;2023-08-24T03:37:50;12.75;;;10.25;;
56161;SDS011;42045;52.986;6.014;2023-08-24T03:40:16;13.60;;;11.63;;
56161;SDS011;42045;52.986;6.014;2023-08-24T03:42:42;9.95;;;9.05;;
56161;SDS011;42045;52.986;6.014;2023-08-24T03:45:08;8.48;;;7.78;;
56161;SDS011;42045;52.986;6.014;2023-08-24T03:47:34;10.55;;;8.55;;
56161;SDS011;42045;52.986;6.014;2023-08-24T03:49:59;10.82;;;8.88;;
56161;SDS011;42045;52.986;6.014;2023-08-24T03:52:25;11.15;;;10.02;;
56161;SDS011;42045;52.986;6.014;2023-08-24T03:54:50;14.80;;;10.27;;
56161;SDS011;42045;52.986;6.014;2023-08-24T03:57:20;12.82;;;10.45;;
56161;SDS011;42045;52.986;6.014;2023-08-24T03:59:46;11.77;;;10.43;;
56161;SDS011;42045;52.986;6.014;2023-08-24T04:02:12;14.82;;;10.48;;
56161;SDS011;42045;52.986;6.014;2023-08-24T04:04:37;10.88;;;9.57;;
56161;SDS011;42045;52.986;6.014;2023-08-24T04:07:03;11.80;;;10.30;;
56161;SDS011;42045;52.986;6.014;2023-08-24T04:09:29;11.93;;;10.65;;
56161;SDS011;42045;52.986;6.014;2023-08-24T04:11:54;9.88;;;8.95;;
56161;SDS011;42045;52.986;6.014;2023-08-24T04:14:20;9.88;;;8.88;;
56161;SDS011;42045;52.986;6.014;2023-08-24T04:16:45;12.57;;;9.05;;
56161;SDS011;42045;52.986;6.014;2023-08-24T04:19:12;14.23;;;9.80;;
56161;SDS011;42045;52.986;6.014;2023-08-24T04:21:38;11.23;;;9.80;;
56161;SDS011;42045;52.986;6.014;2023-08-24T04:24:03;11.95;;;9.73;;
56161;SDS011;42045;52.986;6.014;2023-08-24T04:26:29;12.32;;;10.35;;
56161;SDS011;42045;52.986;6.014;2023-08-24T04:28:55;9.82;;;8.70;;
56161;SDS011;42045;52.986;6.014;2023-08-24T04:31:21;12.80;;;10.25;;
56161;SDS011;42045;52.986;6.014;2023-08-24T04:33:47;10.75;;;9.18;;
56161;SDS011;42045;52.986;6.014;2023-08-24T04:36:12;11.07;;;10.00;;
56161;SDS011;42045;52.986;6.014;2023-08-24T04:38:38;12.63;;;10.90;;
56161;SDS011;42045;52.986;6.014;2023-08-24T04:41:06;12.13;;;10.63;;
56161;SDS011;42045;52.986;6.014;2023-08-24T04:43:32;14.18;;;10.65;;
56161;SDS011;42045;52.986;6.014;2023-08-24T04:45:58;15.75;;;11.65;;
56161;SDS011;42045;52.986;6.014;2023-08-24T04:48:24;12.00;;;10.77;;
56161;SDS011;42045;52.986;6.014;2023-08-24T04:50:51;17.40;;;11.05;;
56161;SDS011;42045;52.986;6.014;2023-08-24T04:53:18;12.57;;;10.70;;
56161;SDS011;42045;52.986;6.014;2023-08-24T04:55:45;14.07;;;11.13;;
56161;SDS011;42045;52.986;6.014;2023-08-24T04:58:11;13.98;;;10.48;;
56161;SDS011;42045;52.986;6.014;2023-08-24T05:00:40;11.90;;;9.15;;
56161;SDS011;42045;52.986;6.014;2023-08-24T05:03:06;12.02;;;10.75;;
56161;SDS011;42045;52.986;6.014;2023-08-24T05:05:33;13.20;;;10.73;;
56161;SDS011;42045;52.986;6.014;2023-08-24T05:08:00;12.25;;;10.00;;
56161;SDS011;42045;52.986;6.014;2023-08-24T05:10:29;13.95;;;9.80;;
56161;SDS011;42045;52.986;6.014;2023-08-24T05:12:56;12.10;;;10.90;;
56161;SDS011;42045;52.986;6.014;2023-08-24T05:15:22;17.92;;;11.57;;
56161;SDS011;42045;52.986;6.014;2023-08-24T05:17:48;10.70;;;9.50;;
56161;SDS011;42045;52.986;6.014;2023-08-24T05:20:14;12.90;;;11.68;;
56161;SDS011;42045;52.986;6.014;2023-08-24T05:22:39;13.15;;;10.50;;
56161;SDS011;42045;52.986;6.014;2023-08-24T05:25:05;14.35;;;10.57;;
56161;SDS011;42045;52.986;6.014;2023-08-24T05:27:31;12.27;;;10.82;;
56161;SDS011;42045;52.986;6.014;2023-08-24T05:29:57;11.43;;;10.20;;
56161;SDS011;42045;52.986;6.014;2023-08-24T05:32:23;11.32;;;9.57;;
56161;SDS011;42045;52.986;6.014;2023-08-24T05:34:49;11.70;;;10.23;;
56161;SDS011;42045;52.986;6.014;2023-08-24T05:37:15;11.48;;;9.15;;
56161;SDS011;42045;52.986;6.014;2023-08-24T05:39:41;9.80;;;8.80;;
56161;SDS011;42045;52.986;6.014;2023-08-24T05:42:08;9.05;;;7.50;;
56161;SDS011;42045;52.986;6.014;2023-08-24T05:44:33;9.98;;;6.88;;
56161;SDS011;42045;52.986;6.014;2023-08-24T05:46:59;11.13;;;7.60;;
56161;SDS011;42045;52.986;6.014;2023-08-24T05:49:25;7.53;;;6.75;;
56161;SDS011;42045;52.986;6.014;2023-08-24T05:51:51;9.73;;;6.68;;
56161;SDS011;42045;52.986;6.014;2023-08-24T05:54:17;9.20;;;5.63;;
56161;SDS011;42045;52.986;6.014;2023-08-24T05:56:46;10.50;;;6.13;;
56161;SDS011;42045;52.986;6.014;2023-08-24T05:59:13;8.13;;;5.72;;
56161;SDS011;42045;52.986;6.014;2023-08-24T06:01:39;6.97;;;4.85;;
56161;SDS011;42045;52.986;6.014;2023-08-24T06:04:06;7.78;;;5.25;;
56161;SDS011;42045;52.986;6.014;2023-08-24T06:06:35;10.15;;;4.88;;
56161;SDS011;42045;52.986;6.014;2023-08-24T06:09:02;7.95;;;5.15;;
56161;SDS011;42045;52.986;6.014;2023-08-24T06:11:29;6.53;;;4.43;;
56161;SDS011;42045;52.986;6.014;2023-08-24T06:13:55;6.35;;;4.47;;
56161;SDS011;42045;52.986;6.014;2023-08-24T06:16:21;8.50;;;4.47;;
56161;SDS011;42045;52.986;6.014;2023-08-24T06:18:47;5.35;;;4.38;;
56161;SDS011;42045;52.986;6.014;2023-08-24T06:21:14;6.35;;;4.20;;
56161;SDS011;42045;52.986;6.014;2023-08-24T06:23:40;8.57;;;4.68;;
56161;SDS011;42045;52.986;6.014;2023-08-24T06:26:06;8.70;;;4.32;;
56161;SDS011;42045;52.986;6.014;2023-08-24T06:28:32;6.22;;;4.55;;
56161;SDS011;42045;52.986;6.014;2023-08-24T06:30:59;8.80;;;4.53;;
56161;SDS011;42045;52.986;6.014;2023-08-24T06:33:29;9.20;;;5.40;;
56161;SDS011;42045;52.986;6.014;2023-08-24T06:38:24;6.18;;;4.93;;
56161;SDS011;42045;52.986;6.014;2023-08-24T06:40:50;8.02;;;4.28;;
56161;SDS011;42045;52.986;6.014;2023-08-24T06:43:16;7.25;;;4.75;;
56161;SDS011;42045;52.986;6.014;2023-08-24T06:45:43;6.38;;;4.28;;
56161;SDS011;42045;52.986;6.014;2023-08-24T06:48:09;6.35;;;3.97;;
56161;SDS011;42045;52.986;6.014;2023-08-24T06:50:35;6.70;;;4.00;;
56161;SDS011;42045;52.986;6.014;2023-08-24T06:53:02;7.65;;;4.28;;
56161;SDS011;42045;52.986;6.014;2023-08-24T06:55:31;9.15;;;4.25;;
56161;SDS011;42045;52.986;6.014;2023-08-24T06:57:56;8.98;;;4.13;;
56161;SDS011;42045;52.986;6.014;2023-08-24T07:00:22;6.50;;;3.95;;
56161;SDS011;42045;52.986;6.014;2023-08-24T07:02:48;7.70;;;4.10;;
56161;SDS011;42045;52.986;6.014;2023-08-24T07:05:14;9.10;;;4.22;;
56161;SDS011;42045;52.986;6.014;2023-08-24T07:07:44;4.75;;;4.00;;
56161;SDS011;42045;52.986;6.014;2023-08-24T07:10:11;6.95;;;4.35;;
56161;SDS011;42045;52.986;6.014;2023-08-24T07:12:37;8.02;;;4.00;;
56161;SDS011;42045;52.986;6.014;2023-08-24T07:15:05;6.93;;;4.60;;
56161;SDS011;42045;52.986;6.014;2023-08-24T07:17:32;9.30;;;4.70;;
56161;SDS011;42045;52.986;6.014;2023-08-24T07:19:58;6.63;;;4.93;;
56161;SDS011;42045;52.986;6.014;2023-08-24T07:22:23;6.45;;;5.07;;
56161;SDS011;42045;52.986;6.014;2023-08-24T07:24:52;7.82;;;5.50;;
56161;SDS011;42045;52.986;6.014;2023-08-24T07:27:18;6.90;;;6.03;;
56161;SDS011;42045;52.986;6.014;2023-08-24T07:29:44;7.57;;;5.90;;
56161;SDS011;42045;52.986;6.014;2023-08-24T07:32:10;11.07;;;6.25;;
56161;SDS011;42045;52.986;6.014;2023-08-24T07:34:35;9.77;;;7.18;;
56161;SDS011;42045;52.986;6.014;2023-08-24T07:37:01;11.40;;;6.72;;
56161;SDS011;42045;52.986;6.014;2023-08-24T07:39:27;7.95;;;6.00;;
56161;SDS011;42045;52.986;6.014;2023-08-24T07:41:53;8.30;;;7.07;;
56161;SDS011;42045;52.986;6.014;2023-08-24T07:44:18;11.07;;;6.85;;
56161;SDS011;42045;52.986;6.014;2023-08-24T07:46:44;10.85;;;6.63;;
56161;SDS011;42045;52.986;6.014;2023-08-24T07:49:10;9.15;;;6.32;;
56161;SDS011;42045;52.986;6.014;2023-08-24T07:51:36;12.20;;;7.22;;
56161;SDS011;42045;52.986;6.014;2023-08-24T07:54:01;9.00;;;7.80;;
56161;SDS011;42045;52.986;6.014;2023-08-24T07:56:29;9.98;;;6.25;;
56161;SDS011;42045;52.986;6.014;2023-08-24T07:58:55;8.70;;;6.47;;
56161;SDS011;42045;52.986;6.014;2023-08-24T08:01:21;9.65;;;6.90;;
56161;SDS011;42045;52.986;6.014;2023-08-24T08:03:46;8.77;;;6.45;;
56161;SDS011;42045;52.986;6.014;2023-08-24T08:06:12;10.05;;;6.50;;
56161;SDS011;42045;52.986;6.014;2023-08-24T08:08:38;9.32;;;6.38;;
56161;SDS011;42045;52.986;6.014;2023-08-24T08:11:04;8.38;;;6.32;;
56161;SDS011;42045;52.986;6.014;2023-08-24T08:13:30;10.90;;;6.65;;
56161;SDS011;42045;52.986;6.014;2023-08-24T08:16:05;13.02;;;7.18;;
56161;SDS011;42045;52.986;6.014;2023-08-24T08:18:32;10.93;;;6.40;;
56161;SDS011;42045;52.986;6.014;2023-08-24T08:20:59;11.27;;;6.80;;
56161;SDS011;42045;52.986;6.014;2023-08-24T08:23:24;11.18;;;6.10;;
56161;SDS011;42045;52.986;6.014;2023-08-24T08:25:50;8.43;;;6.40;;
56161;SDS011;42045;52.986;6.014;2023-08-24T08:28:16;8.70;;;6.78;;
56161;SDS011;42045;52.986;6.014;2023-08-24T08:30:45;10.23;;;7.18;;
56161;SDS011;42045;52.986;6.014;2023-08-24T08:33:12;7.50;;;6.70;;
56161;SDS011;42045;52.986;6.014;2023-08-24T08:35:38;11.10;;;6.65;;
56161;SDS011;42045;52.986;6.014;2023-08-24T08:38:07;9.70;;;7.15;;
56161;SDS011;42045;52.986;6.014;2023-08-24T08:40:33;9.18;;;6.35;;
56161;SDS011;42045;52.986;6.014;2023-08-24T08:43:02;10.32;;;6.78;;
56161;SDS011;42045;52.986;6.014;2023-08-24T08:45:28;8.77;;;6.57;;
56161;SDS011;42045;52.986;6.014;2023-08-24T08:47:57;10.90;;;7.75;;
56161;SDS011;42045;52.986;6.014;2023-08-24T08:50:24;8.02;;;7.05;;
56161;SDS011;42045;52.986;6.014;2023-08-24T08:52:50;14.32;;;7.95;;
56161;SDS011;42045;52.986;6.014;2023-08-24T08:55:16;10.45;;;7.65;;
56161;SDS011;42045;52.986;6.014;2023-08-24T08:57:43;11.68;;;7.25;;
56161;SDS011;42045;52.986;6.014;2023-08-24T09:00:11;12.48;;;7.35;;
56161;SDS011;42045;52.986;6.014;2023-08-24T09:02:41;8.25;;;7.45;;
56161;SDS011;42045;52.986;6.014;2023-08-24T09:05:09;9.80;;;8.02;;
56161;SDS011;42045;52.986;6.014;2023-08-24T09:07:35;12.15;;;8.18;;
56161;SDS011;42045;52.986;6.014;2023-08-24T09:10:04;8.88;;;7.43;;
56161;SDS011;42045;52.986;6.014;2023-08-24T09:12:31;13.70;;;8.88;;
56161;SDS011;42045;52.986;6.014;2023-08-24T09:15:03;11.05;;;7.75;;
56161;SDS011;42045;52.986;6.014;2023-08-24T09:17:31;13.63;;;8.13;;
56161;SDS011;42045;52.986;6.014;2023-08-24T09:19:58;12.77;;;7.75;;
56161;SDS011;42045;52.986;6.014;2023-08-24T09:22:25;10.70;;;7.63;;
56161;SDS011;42045;52.986;6.014;2023-08-24T09:24:50;12.18;;;8.25;;
56161;SDS011;42045;52.986;6.014;2023-08-24T09:27:25;11.80;;;8.25;;
56161;SDS011;42045;52.986;6.014;2023-08-24T09:29:51;10.80;;;8.35;;
56161;SDS011;42045;52.986;6.014;2023-08-24T09:32:21;9.57;;;8.63;;
56161;SDS011;42045;52.986;6.014;2023-08-24T09:34:48;10.40;;;8.77;;
56161;SDS011;42045;52.986;6.014;2023-08-24T09:37:15;12.02;;;8.45;;
56161;SDS011;42045;52.986;6.014;2023-08-24T09:39:41;10.38;;;8.35;;
56161;SDS011;42045;52.986;6.014;2023-08-24T09:42:07;12.57;;;8.68;;
56161;SDS011;42045;52.986;6.014;2023-08-24T09:44:33;10.98;;;9.40;;
56161;SDS011;42045;52.986;6.014;2023-08-24T09:46:59;12.32;;;9.45;;
56161;SDS011;42045;52.986;6.014;2023-08-24T09:49:24;12.73;;;9.68;;
56161;SDS011;42045;52.986;6.014;2023-08-24T09:51:53;12.98;;;10.75;;
56161;SDS011;42045;52.986;6.014;2023-08-24T09:54:27;14.98;;;10.05;;
56161;SDS011;42045;52.986;6.014;2023-08-24T09:56:56;15.13;;;10.82;;
56161;SDS011;42045;52.986;6.014;2023-08-24T09:59:25;14.02;;;11.02;;
56161;SDS011;42045;52.986;6.014;2023-08-24T10:01:53;14.18;;;10.88;;
56161;SDS011;42045;52.986;6.014;2023-08-24T10:04:22;14.07;;;9.73;;
56161;SDS011;42045;52.986;6.014;2023-08-24T10:06:55;16.23;;;11.07;;
56161;SDS011;42045;52.986;6.014;2023-08-24T10:09:38;12.68;;;10.15;;
56161;SDS011;42045;52.986;6.014;2023-08-24T10:12:09;16.63;;;10.65;;
56161;SDS011;42045;52.986;6.014;2023-08-24T10:17:14;15.07;;;11.02;;
56161;SDS011;42045;52.986;6.014;2023-08-24T10:19:41;12.77;;;10.45;;
56161;SDS011;42045;52.986;6.014;2023-08-24T10:22:08;13.02;;;11.65;;
56161;SDS011;42045;52.986;6.014;2023-08-24T10:24:35;15.48;;;11.23;;
56161;SDS011;42045;52.986;6.014;2023-08-24T10:27:01;15.75;;;11.35;;
56161;SDS011;42045;52.986;6.014;2023-08-24T10:29:28;17.13;;;12.15;;
56161;SDS011;42045;52.986;6.014;2023-08-24T10:31:54;13.40;;;11.43;;
56161;SDS011;42045;52.986;6.014;2023-08-24T10:34:21;15.23;;;11.70;;
56161;SDS011;42045;52.986;6.014;2023-08-24T10:36:47;12.52;;;11.13;;
56161;SDS011;42045;52.986;6.014;2023-08-24T10:39:16;17.67;;;13.65;;
56161;SDS011;42045;52.986;6.014;2023-08-24T10:41:50;19.58;;;12.98;;
56161;SDS011;42045;52.986;6.014;2023-08-24T10:44:21;15.43;;;13.80;;
56161;SDS011;42045;52.986;6.014;2023-08-24T10:55:00;15.02;;;13.27;;
56161;SDS011;42045;52.986;6.014;2023-08-24T10:57:34;15.95;;;14.23;;
56161;SDS011;42045;52.986;6.014;2023-08-24T11:02:40;21.73;;;16.08;;
56161;SDS011;42045;52.986;6.014;2023-08-24T11:05:10;19.70;;;16.67;;
56161;SDS011;42045;52.986;6.014;2023-08-24T11:07:50;20.17;;;14.60;;
56161;SDS011;42045;52.986;6.014;2023-08-24T11:10:34;19.00;;;17.00;;
56161;SDS011;42045;52.986;6.014;2023-08-24T11:15:41;17.20;;;15.35;;
56161;SDS011;42045;52.986;6.014;2023-08-24T11:18:26;16.65;;;14.38;;
56161;SDS011;42045;52.986;6.014;2023-08-24T11:23:24;19.88;;;16.35;;
56161;SDS011;42045;52.986;6.014;2023-08-24T11:25:51;21.45;;;17.48;;
56161;SDS011;42045;52.986;6.014;2023-08-24T11:28:26;18.00;;;15.82;;
56161;SDS011;42045;52.986;6.014;2023-08-24T11:30:53;18.23;;;15.43;;
56161;SDS011;42045;52.986;6.014;2023-08-24T11:33:29;24.98;;;18.98;;
56161;SDS011;42045;52.986;6.014;2023-08-24T11:36:00;17.05;;;15.25;;
56161;SDS011;42045;52.986;6.014;2023-08-24T11:38:37;17.20;;;15.48;;
56161;SDS011;42045;52.986;6.014;2023-08-24T11:41:14;18.27;;;16.60;;
56161;SDS011;42045;52.986;6.014;2023-08-24T11:43:45;16.48;;;14.70;;
56161;SDS011;42045;52.986;6.014;2023-08-24T11:46:13;22.17;;;19.45;;
56161;SDS011;42045;52.986;6.014;2023-08-24T11:48:40;18.83;;;16.85;;
56161;SDS011;42045;52.986;6.014;2023-08-24T11:51:10;19.27;;;17.55;;
56161;SDS011;42045;52.986;6.014;2023-08-24T11:53:41;20.42;;;17.63;;
56161;SDS011;42045;52.986;6.014;2023-08-24T11:56:08;17.88;;;16.20;;
56161;SDS011;42045;52.986;6.014;2023-08-24T11:58:42;21.98;;;19.58;;
56161;SDS011;42045;52.986;6.014;2023-08-24T12:01:12;22.35;;;19.17;;
56161;SDS011;42045;52.986;6.014;2023-08-24T12:03:38;23.45;;;20.58;;
56161;SDS011;42045;52.986;6.014;2023-08-24T12:06:11;18.67;;;16.80;;
56161;SDS011;42045;52.986;6.014;2023-08-24T12:08:42;22.50;;;18.80;;
56161;SDS011;42045;52.986;6.014;2023-08-24T12:11:15;25.90;;;18.63;;
56161;SDS011;42045;52.986;6.014;2023-08-24T12:16:13;23.00;;;20.40;;
56161;SDS011;42045;52.986;6.014;2023-08-24T12:18:51;20.52;;;18.27;;
56161;SDS011;42045;52.986;6.014;2023-08-24T12:21:22;24.60;;;20.15;;
56161;SDS011;42045;52.986;6.014;2023-08-24T12:23:58;21.13;;;19.13;;
56161;SDS011;42045;52.986;6.014;2023-08-24T12:26:26;22.05;;;19.83;;
56161;SDS011;42045;52.986;6.014;2023-08-24T12:28:52;23.73;;;21.67;;
56161;SDS011;42045;52.986;6.014;2023-08-24T12:31:19;22.05;;;19.73;;
56161;SDS011;42045;52.986;6.014;2023-08-24T12:33:45;25.58;;;22.00;;
56161;SDS011;42045;52.986;6.014;2023-08-24T12:36:22;23.85;;;21.73;;
56161;SDS011;42045;52.986;6.014;2023-08-24T12:38:47;23.55;;;21.27;;
56161;SDS011;42045;52.986;6.014;2023-08-24T12:41:13;23.15;;;20.75;;
56161;SDS011;42045;52.986;6.014;2023-08-24T12:43:38;22.13;;;19.45;;
56161;SDS011;42045;52.986;6.014;2023-08-24T12:46:04;21.02;;;18.83;;
56161;SDS011;42045;52.986;6.014;2023-08-24T12:48:30;25.67;;;23.05;;
56161;SDS011;42045;52.986;6.014;2023-08-24T12:50:55;24.45;;;22.08;;
56161;SDS011;42045;52.986;6.014;2023-08-24T12:53:21;26.98;;;23.85;;
56161;SDS011;42045;52.986;6.014;2023-08-24T12:55:47;25.60;;;23.40;;
56161;SDS011;42045;52.986;6.014;2023-08-24T12:58:13;23.77;;;21.38;;
56161;SDS011;42045;52.986;6.014;2023-08-24T13:00:38;23.65;;;21.30;;
56161;SDS011;42045;52.986;6.014;2023-08-24T13:03:04;25.80;;;23.17;;
56161;SDS011;42045;52.986;6.014;2023-08-24T13:05:29;25.50;;;23.20;;
56161;SDS011;42045;52.986;6.014;2023-08-24T13:07:55;26.38;;;23.90;;
56161;SDS011;42045;52.986;6.014;2023-08-24T13:10:22;24.73;;;22.33;;
56161;SDS011;42045;52.986;6.014;2023-08-24T13:12:47;26.92;;;24.35;;
56161;SDS011;42045;52.986;6.014;2023-08-24T13:15:13;26.50;;;23.75;;
56161;SDS011;42045;52.986;6.014;2023-08-24T13:17:40;25.45;;;23.05;;
56161;SDS011;42045;52.986;6.014;2023-08-24T13:20:06;23.33;;;21.02;;
56161;SDS011;42045;52.986;6.014;2023-08-24T13:22:32;20.35;;;17.75;;
56161;SDS011;42045;52.986;6.014;2023-08-24T13:24:58;21.38;;;19.15;;
56161;SDS011;42045;52.986;6.014;2023-08-24T13:27:24;19.80;;;17.90;;
56161;SDS011;42045;52.986;6.014;2023-08-24T13:29:50;20.67;;;18.60;;
56161;SDS011;42045;52.986;6.014;2023-08-24T13:32:15;21.10;;;19.10;;
56161;SDS011;42045;52.986;6.014;2023-08-24T13:34:41;17.60;;;16.10;;
56161;SDS011;42045;52.986;6.014;2023-08-24T13:37:07;14.38;;;12.98;;
56161;SDS011;42045;52.986;6.014;2023-08-24T13:39:32;16.27;;;14.60;;
56161;SDS011;42045;52.986;6.014;2023-08-24T13:41:58;16.70;;;15.13;;
56161;SDS011;42045;52.986;6.014;2023-08-24T13:44:24;16.23;;;14.63;;
56161;SDS011;42045;52.986;6.014;2023-08-24T13:46:50;16.77;;;15.27;;
56161;SDS011;42045;52.986;6.014;2023-08-24T13:49:19;16.73;;;14.95;;
56161;SDS011;42045;52.986;6.014;2023-08-24T13:51:45;15.55;;;14.07;;
56161;SDS011;42045;52.986;6.014;2023-08-24T13:54:15;13.95;;;12.55;;
56161;SDS011;42045;52.986;6.014;2023-08-24T13:56:42;13.52;;;12.30;;
56161;SDS011;42045;52.986;6.014;2023-08-24T13:59:08;12.60;;;10.57;;
56161;SDS011;42045;52.986;6.014;2023-08-24T14:01:34;14.63;;;12.00;;
56161;SDS011;42045;52.986;6.014;2023-08-24T14:04:00;14.95;;;13.43;;
56161;SDS011;42045;52.986;6.014;2023-08-24T14:06:28;14.25;;;12.95;;
56161;SDS011;42045;52.986;6.014;2023-08-24T14:08:54;12.38;;;11.18;;
56161;SDS011;42045;52.986;6.014;2023-08-24T14:11:21;11.88;;;10.82;;
56161;SDS011;42045;52.986;6.014;2023-08-24T14:13:46;12.73;;;11.38;;
56161;SDS011;42045;52.986;6.014;2023-08-24T14:16:12;11.70;;;10.50;;
56161;SDS011;42045;52.986;6.014;2023-08-24T14:18:38;11.93;;;10.73;;
56161;SDS011;42045;52.986;6.014;2023-08-24T14:21:03;10.85;;;9.75;;
56161;SDS011;42045;52.986;6.014;2023-08-24T14:23:29;9.88;;;9.07;;
56161;SDS011;42045;52.986;6.014;2023-08-24T14:25:55;11.35;;;10.23;;
56161;SDS011;42045;52.986;6.014;2023-08-24T14:28:21;11.15;;;9.95;;
56161;SDS011;42045;52.986;6.014;2023-08-24T14:30:50;12.23;;;10.98;;
56161;SDS011;42045;52.986;6.014;2023-08-24T14:33:16;13.70;;;12.40;;
56161;SDS011;42045;52.986;6.014;2023-08-24T14:35:49;13.88;;;12.55;;
56161;SDS011;42045;52.986;6.014;2023-08-24T14:38:15;14.15;;;12.82;;
56161;SDS011;42045;52.986;6.014;2023-08-24T14:40:41;13.82;;;12.57;;
56161;SDS011;42045;52.986;6.014;2023-08-24T14:43:07;16.13;;;13.10;;
56161;SDS011;42045;52.986;6.014;2023-08-24T14:45:32;16.45;;;14.82;;
56161;SDS011;42045;52.986;6.014;2023-08-24T14:47:58;15.07;;;13.60;;
56161;SDS011;42045;52.986;6.014;2023-08-24T14:50:24;17.45;;;15.85;;
56161;SDS011;42045;52.986;6.014;2023-08-24T14:52:49;16.73;;;15.18;;
56161;SDS011;42045;52.986;6.014;2023-08-24T14:55:15;17.63;;;16.02;;
56161;SDS011;42045;52.986;6.014;2023-08-24T14:57:43;18.55;;;17.00;;
56161;SDS011;42045;52.986;6.014;2023-08-24T15:00:09;19.17;;;17.38;;